Hauptseite
METAR-TAF:

METAR-TAF

Flughäfen :

Flughafen Saarbrücken

Saarbrücken, Deutschland

Breite: 49-13N, Länge: 007-07E, Höhe: 322 m

Beobachtung

Neuester Wetterbericht von vor 24 Minuten, um 02:50 UTC
Wind 8 kt aus Nordost
Temperatur 2°C
Luftfeuchtigkeit 87%
Luftdruck 1025 hPa
Sichtweite 10 km oder mehr
keine Wolken unter 1500 m und keine Kumulonimbus oder Gewitterwolken

METAR: EDDR 170250Z 04008KT CAVOK 02/M00 Q1025

Zeit: 04:14 (03:14 UTC)

Prognose

Neuester Wetterbericht von vor 4 Stunden und 14 Minuten, um 23:00 UTC
Gültige Prognose vom 17 um 00 UTC bis 17 um 24 UTC
Wind 10 kt aus Nordost
Sichtweite 10 km oder mehr
keine Wolken unter 1500 m und keine Kumulonimbus oder Gewitterwolken
Zeitweise
vom 17 um 06 UTC bis 17 um 18 UTC
Wind 15 kt aus Nordost, Böen bis zu 25 kt

TAF: EDDR 162300Z 1700/1724 04010KT CAVOK TEMPO 1706/1718 05015G25KT

Wetterbeobachtungen und Prognosen von mehr als 4000 Flughäfen (METAR und TAF Bericht).

Die verfügbaren Stationen werden durch gelbe und rote Markierungen auf der Karte dargestellt.

Führen Sie die Maus auf sie, um den Namen der Station zu sehen.

Darauf klicken, um die Beobachtung von Wetterbeobachtungen und Prognosen zu sehen.

Um die Karte zu ändern : klicken Sie auf den grünen Tasten mit einem schwarzen Kreuz Zum Vergrößern, auf den grünen Button mit einem Gedankenstrich zu verkleinern, oder auf die grünen Pfeile für benachbarte Karten.


METAR-TAF: